< < Back
Terminal Aerodrome Forecast


Current Version              Previous Versions:   1  2  3  4  5  6  7  8  9  

Terminal Aerodrome Forecast

860
FTUS44 KMRX 291720
TAFCHA
TAF
KCHA 291720Z 2918/3018 VRB04KT P6SM BKN250
     FM300200 VRB03KT P6SM BKN150
     FM301500 17004KT P6SM VCTS BKN050CB=

Latest METAR

662
SAUS80 KWBC 301700 RRB
MTRCHA
METAR KCHA 301653Z VRB05KT 10SM SCT029 SCT050 BKN065 24/16 A2995 RMK AO2
RAE1559 SLP136 P0000 T02390156


USA.gov is the U.S. government's official web portal to all federal, state and local government web resources and services.